createdAt,value
2023-06-15T00:02:53.389Z,100224.38
2023-06-15T00:07:54.805Z,100225.81
2023-06-15T00:12:56.722Z,100215.56
2023-06-15T00:17:58.628Z,100207.09
2023-06-15T00:23:00.299Z,100225.47
2023-06-15T00:28:39.136Z,100227.03
2023-06-15T00:33:40.997Z,100227.81
2023-06-15T00:38:42.398Z,100232.91
2023-06-15T00:43:44.129Z,100230.69
2023-06-15T00:48:46.067Z,100233.41
2023-06-15T00:53:48.213Z,100230.41
2023-06-15T00:58:50.460Z,100232.19
2023-06-15T01:03:51.970Z,100245.03
2023-06-15T01:08:54.561Z,100248.78
2023-06-15T01:13:59.218Z,100248.22
2023-06-15T01:24:25.339Z,100239.06
2023-06-15T01:29:28.413Z,100237.84
2023-06-15T01:34:32.412Z,100232.44
2023-06-15T01:39:33.883Z,100237.59
2023-06-15T01:44:36.345Z,100227.50
2023-06-15T01:49:40.158Z,100234.09
2023-06-15T01:54:41.625Z,100225.97
2023-06-15T01:59:43.407Z,100231.81
2023-06-15T02:04:44.848Z,100222.59
2023-06-15T02:09:46.478Z,100227.63
2023-06-15T02:14:49.126Z,100223.91
2023-06-15T02:19:50.593Z,100222.25
2023-06-15T02:24:52.206Z,100220.91
2023-06-15T02:29:53.590Z,100225.69
2023-06-15T02:34:57.312Z,100227.69
2023-06-15T02:39:58.794Z,100222.66
2023-06-15T02:45:00.725Z,100226.38
2023-06-15T02:50:03.241Z,100233.91
2023-06-15T02:55:05.085Z,100240.69
2023-06-15T03:00:10.081Z,100236.66
2023-06-15T03:05:12.433Z,100242.97
2023-06-15T03:10:13.889Z,100253.41
2023-06-15T03:15:16.139Z,100258.91
2023-06-15T03:20:17.969Z,100264.63
2023-06-15T03:25:21.410Z,100261.06
2023-06-15T03:30:23.030Z,100258.47
2023-06-15T03:35:24.650Z,100268.97
2023-06-15T03:40:26.313Z,100276.19
2023-06-15T03:45:27.685Z,100278.75
2023-06-15T03:50:29.110Z,100279.75
2023-06-15T03:55:31.259Z,100278.91
2023-06-15T04:00:32.612Z,100275.75
2023-06-15T04:05:34.126Z,100285.50
2023-06-15T04:10:36.382Z,100285.13
2023-06-15T04:15:38.068Z,100290.53
2023-06-15T04:20:39.586Z,100293.09
2023-06-15T04:25:43.788Z,100292.56
2023-06-15T04:30:53.978Z,100286.34
2023-06-15T04:35:57.456Z,100286.19
2023-06-15T04:41:01.825Z,100295.28
2023-06-15T04:46:03.478Z,100296.28
2023-06-15T04:51:06.332Z,100310.44
2023-06-15T04:56:07.812Z,100303.47
2023-06-15T05:01:09.269Z,100309.41
2023-06-15T05:06:11.128Z,100310.09
2023-06-15T05:11:12.766Z,100301.66
2023-06-15T05:16:14.222Z,100313.75
2023-06-15T05:21:15.950Z,100313.84
2023-06-15T05:26:28.992Z,100315.34
2023-06-15T05:31:31.994Z,100321.50
2023-06-15T05:36:54.582Z,100312.22
2023-06-15T05:41:56.570Z,100319.38
2023-06-15T05:46:58.235Z,100322.19
2023-06-15T05:52:01.266Z,100332.25
2023-06-15T05:57:02.938Z,100345.47
2023-06-15T06:02:04.996Z,100340.66
2023-06-15T06:07:07.698Z,100346.31
2023-06-15T06:12:10.244Z,100351.22
2023-06-15T06:17:14.694Z,100347.91
2023-06-15T06:22:21.587Z,100355.84
2023-06-15T06:27:24.507Z,100346.16
2023-06-15T06:32:26.830Z,100356.88
2023-06-15T06:37:28.552Z,100355.78
2023-06-15T06:42:30.564Z,100351.09
2023-06-15T06:47:32.566Z,100344.53
2023-06-15T06:52:34.041Z,100356.91
2023-06-15T06:57:36.935Z,100362.38
2023-06-15T07:02:38.488Z,100358.97
2023-06-15T07:07:40.343Z,100370.78
2023-06-15T07:12:42.186Z,100368.72
2023-06-15T07:17:44.029Z,100369.72
2023-06-15T07:22:46.945Z,100360.75
2023-06-15T07:27:48.961Z,100373.00
2023-06-15T07:32:50.584Z,100368.88
2023-06-15T07:37:52.494Z,100359.47
2023-06-15T07:42:54.702Z,100353.56
2023-06-15T07:47:56.166Z,100356.38
2023-06-15T07:52:58.200Z,100366.03
2023-06-15T07:58:00.617Z,100356.94
2023-06-15T08:03:02.281Z,100353.78
2023-06-15T08:08:04.391Z,100355.13
2023-06-15T08:13:06.159Z,100351.66
2023-06-15T08:18:07.850Z,100350.47
2023-06-15T08:23:09.399Z,100347.97
2023-06-15T08:28:13.548Z,100343.38
2023-06-15T08:33:15.009Z,100350.91
2023-06-15T08:38:16.710Z,100351.78
2023-06-15T08:43:19.553Z,100341.97
2023-06-15T08:48:23.027Z,100331.09
2023-06-15T08:53:28.245Z,100330.44
2023-06-15T08:58:29.713Z,100335.66
2023-06-15T09:03:33.088Z,100325.16
2023-06-15T09:08:36.455Z,100314.47
2023-06-15T09:13:40.070Z,100326.13
2023-06-15T09:18:49.746Z,100321.59
2023-06-15T09:23:51.529Z,100314.31
2023-06-15T09:28:59.032Z,100308.34
2023-06-15T09:34:08.603Z,100308.63
2023-06-15T09:39:13.012Z,100309.78
2023-06-15T09:44:14.705Z,100301.50
2023-06-15T09:49:34.156Z,100312.53
2023-06-15T09:54:36.277Z,100304.75
2023-06-15T09:59:37.780Z,100314.06
2023-06-15T10:04:41.686Z,100312.41
2023-06-15T10:09:49.145Z,100298.16
2023-06-15T10:14:59.885Z,100296.50
2023-06-15T10:20:10.178Z,100294.00
2023-06-15T10:25:12.418Z,100295.31
2023-06-15T10:30:25.173Z,100285.53
2023-06-15T10:35:33.113Z,100290.88
2023-06-15T10:40:41.204Z,100291.00
2023-06-15T10:45:42.543Z,100280.75
2023-06-15T10:50:49.515Z,100283.50
2023-06-15T10:55:55.925Z,100271.59
2023-06-15T11:01:08.778Z,100276.81
2023-06-15T11:06:39.818Z,100272.69
2023-06-15T11:11:46.409Z,100273.56
2023-06-15T11:17:03.323Z,100273.91
2023-06-15T11:22:07.764Z,100262.25
2023-06-15T11:27:10.945Z,100256.84
2023-06-15T11:32:12.695Z,100263.34
2023-06-15T11:37:16.511Z,100267.38
2023-06-15T11:42:20.197Z,100250.78
2023-06-15T11:47:21.907Z,100234.66
2023-06-15T11:52:24.627Z,100248.03
2023-06-15T11:57:26.386Z,100247.34
2023-06-15T12:02:28.070Z,100249.75
2023-06-15T12:07:38.448Z,100242.84
2023-06-15T12:12:41.677Z,100232.34
2023-06-15T12:17:43.439Z,100225.41
2023-06-15T12:22:47.896Z,100218.38
2023-06-15T12:27:51.380Z,100211.81
2023-06-15T12:32:54.682Z,100203.59
2023-06-15T12:37:57.628Z,100204.88
2023-06-15T12:43:04.826Z,100211.56
2023-06-15T12:48:08.511Z,100212.78
2023-06-15T12:53:10.572Z,100213.06
2023-06-15T12:58:13.533Z,100208.06
2023-06-15T13:03:16.569Z,100198.31
2023-06-15T13:08:18.616Z,100197.19
2023-06-15T13:13:20.083Z,100195.66
2023-06-15T13:18:21.796Z,100195.38
2023-06-15T13:23:23.658Z,100194.81
2023-06-15T13:28:25.186Z,100188.66
2023-06-15T13:33:27.428Z,100173.91
2023-06-15T13:38:29.094Z,100177.59
2023-06-15T13:43:31.424Z,100175.75
2023-06-15T13:48:33.293Z,100177.94
2023-06-15T13:53:34.893Z,100161.28
2023-06-15T13:58:36.758Z,100165.78
2023-06-15T14:03:41.163Z,100155.22
2023-06-15T14:08:43.564Z,100156.75
2023-06-15T14:13:51.655Z,100159.50
2023-06-15T14:18:56.933Z,100156.78
2023-06-15T14:23:58.757Z,100157.75
2023-06-15T14:29:00.321Z,100149.53
2023-06-15T14:34:02.245Z,100152.75
2023-06-15T14:39:05.770Z,100145.50
2023-06-15T14:44:09.067Z,100139.69
2023-06-15T14:49:11.661Z,100124.47
2023-06-15T14:54:13.021Z,100142.69
2023-06-15T14:59:14.948Z,100134.56
2023-06-15T15:04:16.357Z,100128.16
2023-06-15T15:09:18.456Z,100116.72
2023-06-15T15:14:19.851Z,100124.09
2023-06-15T15:19:22.758Z,100127.53
2023-06-15T15:24:24.658Z,100130.50
2023-06-15T15:29:26.982Z,100126.09
2023-06-15T15:34:29.090Z,100127.78
2023-06-15T15:39:30.712Z,100136.56
2023-06-15T15:44:32.096Z,100119.00
2023-06-15T15:49:33.585Z,100115.28
2023-06-15T15:54:35.125Z,100129.44
2023-06-15T15:59:39.007Z,100124.19
2023-06-15T16:04:41.016Z,100120.41
2023-06-15T16:09:42.682Z,100127.88
2023-06-15T16:14:44.374Z,100125.94
2023-06-15T16:19:45.890Z,100121.53
2023-06-15T16:24:48.849Z,100127.94
2023-06-15T16:29:50.501Z,100124.63
2023-06-15T16:34:52.437Z,100124.16
2023-06-15T16:39:56.437Z,100121.31
2023-06-15T16:45:01.149Z,100122.69
2023-06-15T16:50:03.777Z,100117.22
2023-06-15T16:55:06.094Z,100124.22
2023-06-15T17:00:08.276Z,100115.41
2023-06-15T17:05:09.966Z,100117.53
2023-06-15T17:10:11.746Z,100127.72
2023-06-15T17:15:13.497Z,100130.91
2023-06-15T17:20:15.324Z,100134.56
2023-06-15T17:25:16.694Z,100134.56
2023-06-15T17:30:20.125Z,100136.09
2023-06-15T17:35:22.723Z,100139.44
2023-06-15T17:40:28.208Z,100142.63
2023-06-15T17:45:32.802Z,100138.69
2023-06-15T17:50:34.399Z,100148.09
2023-06-15T17:55:39.209Z,100151.16
2023-06-15T18:00:41.167Z,100141.16
2023-06-15T18:05:43.210Z,100142.22
2023-06-15T18:10:46.322Z,100149.34
2023-06-15T18:15:49.287Z,100150.41
2023-06-15T18:20:51.295Z,100151.91
2023-06-15T18:25:56.340Z,100156.13
2023-06-15T18:30:58.282Z,100155.53
2023-06-15T18:36:00.736Z,100159.97
2023-06-15T18:41:03.426Z,100158.38
2023-06-15T18:46:04.843Z,100165.88
2023-06-15T18:51:06.606Z,100169.66
2023-06-15T18:56:08.007Z,100164.28
2023-06-15T19:01:09.691Z,100164.56
2023-06-15T19:06:11.216Z,100155.47
2023-06-15T19:11:13.288Z,100162.41
2023-06-15T19:16:15.074Z,100166.66
2023-06-15T19:21:16.603Z,100170.84
2023-06-15T19:26:18.424Z,100170.13
2023-06-15T19:31:19.899Z,100181.06
2023-06-15T19:36:21.388Z,100164.38
2023-06-15T19:41:23.354Z,100175.91
2023-06-15T19:46:24.901Z,100181.44
2023-06-15T19:51:26.755Z,100175.84
2023-06-15T19:56:28.240Z,100181.75
2023-06-15T20:01:30.027Z,100190.97
2023-06-15T20:06:32.040Z,100183.91
2023-06-15T20:11:33.533Z,100199.88
2023-06-15T20:16:35.623Z,100198.59
2023-06-15T20:21:37.351Z,100206.63
2023-06-15T20:26:40.215Z,100196.63
2023-06-15T20:31:44.200Z,100203.28
2023-06-15T20:36:46.858Z,100197.66
2023-06-15T20:41:48.229Z,100190.94
2023-06-15T20:46:49.721Z,100196.59
2023-06-15T20:51:51.221Z,100195.19
2023-06-15T20:56:53.552Z,100196.03
2023-06-15T21:01:55.214Z,100192.28
2023-06-15T21:06:57.114Z,100192.06
2023-06-15T21:11:58.561Z,100186.47
2023-06-15T21:17:00.032Z,100194.81
2023-06-15T21:22:04.190Z,100200.88
2023-06-15T21:27:06.574Z,100203.31
2023-06-15T21:32:08.400Z,100199.94
2023-06-15T21:37:11.049Z,100200.97
2023-06-15T21:42:12.609Z,100192.16
2023-06-15T21:47:13.984Z,100202.78
2023-06-15T21:52:17.360Z,100193.34
2023-06-15T21:57:18.900Z,100205.63
2023-06-15T22:02:20.317Z,100204.19
2023-06-15T22:07:21.691Z,100205.69
2023-06-15T22:12:23.081Z,100208.88
2023-06-15T22:17:26.868Z,100207.53
2023-06-15T22:22:28.461Z,100201.66
2023-06-15T22:27:29.964Z,100205.28
2023-06-15T22:32:31.555Z,100199.25
2023-06-15T22:37:32.982Z,100195.03
2023-06-15T22:42:34.604Z,100203.66
2023-06-15T22:47:41.810Z,100202.50
2023-06-15T22:52:43.454Z,100198.69
2023-06-15T22:57:44.822Z,100200.78
2023-06-15T23:02:46.742Z,100202.03
2023-06-15T23:07:49.781Z,100198.59
2023-06-15T23:12:51.723Z,100196.19
2023-06-15T23:17:53.305Z,100202.22
2023-06-15T23:22:59.207Z,100209.13
2023-06-15T23:28:04.089Z,100204.13
2023-06-15T23:33:05.919Z,100205.53
2023-06-15T23:38:07.347Z,100198.38
2023-06-15T23:43:08.799Z,100199.81
2023-06-15T23:48:10.983Z,100193.75
2023-06-15T23:53:12.987Z,100192.44
2023-06-15T23:58:14.701Z,100195.03
